ADDS METAR Data INFO
IDs: Format: Raw Decoded Include TAF

Data at: 1600 UTC 12 Dec 2017

KIMS 121555Z AUTO 32010G17KT 10SM SCT039 00/M10 A3003 RMK AO1
KIMS 121535Z AUTO 33009G15KT 10SM SCT032 OVC039 M01/M10 A3003 RMK AO1
KIMS 121515Z AUTO 32014G21KT 10SM BKN034 BKN041 BKN049 M01/M10 A3002 RMK AO1
KIMS 121455Z AUTO 32014G19KT 279V339 10SM SCT032 SCT038 BKN048 M01/M08 A3001 RMK AO1
KIMS 121435Z AUTO 32009G20KT 10SM SCT038 SCT044 BKN050 00/M07 A3000 RMK AO1
KIMS 121415Z AUTO 33010G16KT 10SM SCT034 SCT043 OVC050 00/M06 A2999 RMK AO1
KIMS 121355Z AUTO 32012G16KT 10SM SCT036 BKN045 OVC050 00/M07 A2998 RMK AO1
KIMS 121335Z AUTO 30009KT 10SM SCT035 BKN044 OVC050 00/M07 A2997 RMK AO1
KIMS 121315Z AUTO 30010G15KT 10SM OVC038 00/M07 A2997 RMK AO1
KIMS 121255Z AUTO 31009G16KT 10SM OVC038 00/M07 A2997 RMK AO1
KIMS 121235Z AUTO 31013G18KT 10SM OVC040 00/M07 A2996 RMK AO1
KIMS 121215Z AUTO 32014G21KT 10SM BKN030 OVC040 00/M05 A2995 RMK AO1
KIMS 121155Z AUTO 30011G20KT 10SM SCT013 SCT020 OVC028 00/M02 A2994 RMK AO1
KIMS 121135Z AUTO 29011G16KT 7SM BKN011 BKN016 OVC026 00/M01 A2993 RMK AO1
KIMS 121115Z AUTO 29008G16KT 4SM SCT012 BKN021 OVC027 00/M01 A2992 RMK AO1
KIMS 121055Z AUTO 30010KT 4SM SCT013 BKN019 OVC031 01/M01 A2991 RMK AO1
KIMS 121035Z AUTO 30011G18KT 4SM OVC015 01/M01 A2991 RMK AO1
KIMS 121015Z AUTO 30010G17KT 10SM OVC015 01/M01 A2990 RMK AO1
KIMS 120955Z AUTO 31014G23KT 10SM OVC015 02/M01 A2989 RMK AO1
KIMS 120935Z AUTO 28010G16KT 10SM OVC015 02/00 A2988 RMK AO1
KIMS 120915Z AUTO 29009G17KT 10SM OVC019 02/M01 A2987 RMK AO1
KIMS 120855Z AUTO 28010G15KT 10SM OVC021 03/M01 A2987 RMK AO1
KIMS 120835Z AUTO 29008G16KT 10SM OVC023 03/M02 A2986 RMK AO1
KIMS 120815Z AUTO 29008G16KT 10SM OVC025 03/M02 A2986 RMK AO1
KIMS 120755Z AUTO 29005G08KT 10SM OVC027 03/M02 A2986 RMK AO1
KIMS 120735Z AUTO 29011G17KT 10SM OVC029 04/M02 A2985 RMK AO1
KIMS 120715Z AUTO 28009G14KT 10SM OVC029 04/M02 A2985 RMK AO1
KIMS 120655Z AUTO 29011G14KT 10SM BKN031 OVC060 04/M02 A2984 RMK AO1
KIMS 120635Z AUTO 28008G18KT 10SM SCT033 OVC060 04/M02 A2984 RMK AO1
KIMS 120615Z AUTO 27010G20KT 10SM SCT047 SCT060 04/M02 A2983 RMK AO1
KIMS 120555Z AUTO 28011G16KT 10SM SCT047 04/M03 A2983 RMK AO1
KIMS 120535Z AUTO 28012G18KT 10SM SCT048 05/M03 A2982 RMK AO1
KIMS 120515Z AUTO 27015G23KT 10SM BKN050 05/M03 A2981 RMK AO1
KIMS 120455Z AUTO 28010KT 10SM SCT050 05/M03 A2980 RMK AO1
KIMS 120435Z AUTO 27013G22KT 10SM CLR 05/M02 A2979 RMK AO1
KIMS 120415Z AUTO 27018G23KT 10SM SCT046 06/M02 A2978 RMK AO1
KIMS 120355Z AUTO 27010G18KT 10SM OVC048 07/M02 A2977 RMK AO1
KIMS 120335Z AUTO 25012G16KT 10SM OVC050 07/M02 A2977 RMK AO1
KIMS 120315Z AUTO 26014G23KT 10SM BKN050 07/M02 A2976 RMK AO1
KIMS 120255Z AUTO 26011G16KT 10SM SCT055 07/M03 A2976 RMK AO1
KIMS 120235Z AUTO 27013G20KT 10SM CLR 07/M03 A2976 RMK AO1
KIMS 120215Z AUTO 26013G16KT 10SM CLR 08/M04 A2976 RMK AO1
KIMS 120155Z AUTO 27011G21KT 10SM CLR 08/M03 A2976 RMK AO1
KIMS 120135Z AUTO 27013G19KT 10SM CLR 08/M03 A2976 RMK AO1
KIMS 120115Z AUTO 25010G24KT 10SM CLR 09/M02 A2974 RMK AO1
KIMS 120055Z AUTO 24007KT 10SM CLR 07/M01 A2973 RMK AO1
KIMS 120035Z AUTO 21007KT 10SM CLR 06/M02 A2972 RMK AO1
KIMS 120015Z AUTO 19007KT 10SM CLR 06/M02 A2972 RMK AO1
KIMS 112355Z AUTO 18007KT 10SM CLR 06/M02 A2973 RMK AO1
KIMS 112335Z AUTO 17006KT 10SM CLR 07/M02 A2973 RMK AO1
KIMS 112315Z AUTO 17009KT 10SM CLR 07/M02 A2973 RMK AO1
KIMS 112255Z AUTO 17006KT 10SM CLR 07/M02 A2974 RMK AO1
KIMS 112235Z AUTO 19005KT 10SM CLR 08/M02 A2976 RMK AO1
KIMS 112215Z AUTO 19004KT 10SM CLR 08/M02 A2976 RMK AO1
KIMS 112155Z AUTO 19006KT 10SM CLR 08/M02 A2976 RMK AO1
KIMS 112135Z AUTO 17007G15KT 10SM CLR 09/M02 A2974 RMK AO1
KIMS 112115Z AUTO 15010G14KT 10SM CLR 09/M02 A2974 RMK AO1
KIMS 112055Z AUTO 15009KT 10SM CLR 09/M02 A2976 RMK AO1
KIMS 112035Z AUTO 15009KT 10SM CLR 09/M02 A2978 RMK AO1
KIMS 112015Z AUTO 17009KT 10SM SCT110 08/M02 A2980 RMK AO1
KIMS 111955Z AUTO 17007KT 10SM BKN120 08/M02 A2982 RMK AO1
KIMS 111935Z AUTO 19008KT 10SM CLR 07/M02 A2983 RMK AO1
KIMS 111855Z AUTO 18013G17KT 10SM CLR 07/M02 A2986 RMK AO1
KIMS 111835Z AUTO 19014KT 10SM CLR 07/M02 A2988 RMK AO1
KIMS 111815Z AUTO 20012G17KT 10SM CLR 07/M02 A2990 RMK AO1
KIMS 111755Z AUTO 21012KT 10SM CLR 07/M02 A2993 RMK AO1
KIMS 111735Z AUTO 20009G16KT 10SM CLR 06/M02 A2994 RMK AO1
KIMS 111715Z AUTO 20008G16KT 10SM CLR 06/M02 A2997 RMK AO1
KIMS 111655Z AUTO 20008KT 10SM CLR 05/M02 A3001 RMK AO1
KIMS 111635Z AUTO 19007KT 10SM CLR 03/M02 A3002 RMK AO1
KIMS 111615Z AUTO 20005KT 10SM CLR 02/M02 A3003 RMK AO1
KIMS 111555Z AUTO 20007KT 10SM CLR 02/M02 A3003 RMK AO1
KIMS 111535Z AUTO 18004KT 10SM CLR 01/M02 A3004 RMK AO1
KIMS 111515Z AUTO 17004KT 10SM CLR 01/M02 A3005 RMK AO1
KIMS 111455Z AUTO 00000KT 10SM CLR 00/M02 A3005 RMK AO1
KIMS 111435Z AUTO 00000KT 10SM CLR M01/M03 A3006 RMK AO1
KIMS 111415Z AUTO 15003KT 10SM CLR M01/M03 A3007 RMK AO1
KIMS 111355Z AUTO 13003KT 10SM CLR M01/M03 A3007 RMK AO1
KIMS 111335Z AUTO 00000KT 10SM SCT100 M01/M03 A3010 RMK AO1
KIMS 111315Z AUTO 15003KT 10SM SCT100 M02/M03 A3009 RMK AO1
KIMS 111255Z AUTO 00000KT 10SM BKN100 M02/M04 A3010 RMK AO1
KIMS 111235Z AUTO 00000KT 10SM OVC100 M03/M04 A3011 RMK AO1
KIMS 111215Z AUTO 00000KT 10SM SCT100 M04/M05 A3011 RMK AO1
KIMS 111155Z AUTO 00000KT 10SM SCT095 M04/M06 A3011 RMK AO1
KIMS 111135Z AUTO 00000KT 10SM BKN095 M04/M05 A3011 RMK AO1
KIMS 111115Z AUTO 00000KT 10SM CLR M05/M06 A3011 RMK AO1
KIMS 111055Z AUTO 00000KT 10SM CLR M05/M06 A3011 RMK AO1
KIMS 111035Z AUTO 00000KT 10SM CLR M04/M05 A3011 RMK AO1
KIMS 111015Z AUTO 00000KT 10SM CLR M05/M06 A3011 RMK AO1
KIMS 110955Z AUTO 00000KT 10SM CLR M04/M06 A3012 RMK AO1
KIMS 110935Z AUTO 00000KT 10SM CLR M03/M05 A3012 RMK AO1
KIMS 110915Z AUTO 00000KT 10SM CLR M03/M05 A3012 RMK AO1
KIMS 110855Z AUTO 00000KT 10SM CLR M04/M06 A3011 RMK AO1
KIMS 110835Z AUTO 00000KT 10SM CLR M02/M05 A3011 RMK AO1
KIMS 110815Z AUTO 00000KT 10SM CLR M03/M06 A3011 RMK AO1
KIMS 110755Z AUTO 00000KT 10SM CLR M01/M05 A3011 RMK AO1
KIMS 110735Z AUTO 00000KT 10SM CLR M01/M05 A3012 RMK AO1
KIMS 110715Z AUTO 00000KT 10SM CLR M01/M05 A3012 RMK AO1
KIMS 110655Z AUTO 00000KT 10SM CLR 00/M05 A3012 RMK AO1
KIMS 110635Z AUTO 00000KT 10SM CLR 00/M05 A3011 RMK AO1
KIMS 110615Z AUTO 27003KT 10SM CLR 00/M05 A3011 RMK AO1
KIMS 110555Z AUTO 27003KT 10SM CLR 00/M05 A3011 RMK AO1
KIMS 110535Z AUTO 26003KT 10SM CLR 00/M05 A3011 RMK AO1
KIMS 110516Z AUTO 27005KT 10SM CLR 00/M05 A3011 RMK AO1
KIMS 110455Z AUTO 26005KT 10SM CLR 00/M05 A3011 RMK AO1
KIMS 110435Z AUTO 26005KT 10SM CLR 00/M05 A3010 RMK AO1
KIMS 110416Z AUTO 27005KT 10SM CLR 00/M05 A3010 RMK AO1